Time;durP1;ratioP1;P1;durP2;ratioP2;P2;SDS_P1;SDS_P2;PMS_P1;PMS_P2;Temp;Humidity;BMP_temperature;BMP_pressure;BME280_temperature;BME280_humidity;BME280_pressure;Samples;Min_cycle;Max_cycle;Signal;HPM_P1;HPM_P2
2023/08/03 00:02:05;;;;;;;1.15;1.15;;;16.90;99.90;;;;;;5055206;28;20033;-93
2023/08/03 00:04:33;;;;;;;1.55;1.45;;;17.00;99.90;;;;;;5060179;28;20098;-94
2023/08/03 00:08:06;;;;;;;1.40;1.35;;;17.20;99.90;;;;;;5033221;28;20440;-96
2023/08/03 00:10:55;;;;;;;1.05;1.05;;;17.30;99.90;;;;;;4927818;29;20066;-96
2023/08/03 00:13:32;;;;;;;1.23;1.23;;;17.30;99.90;;;;;;4914739;29;20039;-96
2023/08/03 00:16:33;;;;;;;1.58;1.48;;;16.80;99.90;;;;;;5042643;28;20049;-96
2023/08/03 00:19:25;;;;;;;1.25;1.25;;;16.90;99.90;;;;;;5056727;28;20048;-94
2023/08/03 00:21:54;;;;;;;1.05;1.05;;;17.30;99.90;;;;;;5028829;28;20602;-91
2023/08/03 00:24:19;;;;;;;1.00;1.00;;;17.10;99.90;;;;;;5044914;28;20040;-89
2023/08/03 00:26:48;;;;;;;1.23;1.23;;;17.10;99.90;;;;;;5031117;28;20064;-96
2023/08/03 00:29:28;;;;;;;1.20;1.20;;;17.20;99.90;;;;;;5060219;28;20047;-95
2023/08/03 00:32:00;;;;;;;1.15;1.15;;;16.80;99.90;;;;;;5040510;28;20127;-94
2023/08/03 00:34:32;;;;;;;1.48;1.38;;;17.10;99.90;;;;;;5032193;28;20111;-94
2023/08/03 00:37:13;;;;;;;1.10;1.10;;;17.20;99.90;;;;;;5049769;28;20045;-92
2023/08/03 00:39:43;;;;;;;1.17;1.17;;;17.20;99.90;;;;;;5033104;28;20040;-91
2023/08/03 00:42:16;;;;;;;1.33;1.30;;;16.90;99.90;;;;;;5038255;28;20045;-96
2023/08/03 00:44:45;;;;;;;1.27;1.27;;;16.50;99.90;;;;;;5027211;28;20072;-94
2023/08/03 00:47:10;;;;;;;1.27;1.27;;;17.10;99.90;;;;;;5034555;28;20048;-94
2023/08/03 00:49:36;;;;;;;1.20;1.20;;;16.70;99.90;;;;;;5028433;28;20500;-93
2023/08/03 00:52:10;;;;;;;1.13;1.13;;;17.20;99.90;;;;;;5045782;28;20308;-94
2023/08/03 00:55:21;;;;;;;1.25;1.25;;;16.70;99.90;;;;;;5029064;28;20826;-96
2023/08/03 00:57:59;;;;;;;1.65;1.55;;;17.20;99.90;;;;;;5031906;28;20052;-94
2023/08/03 01:00:24;;;;;;;1.40;1.35;;;16.50;99.90;;;;;;5031899;28;20074;-89
2023/08/03 01:02:51;;;;;;;1.33;1.30;;;17.00;99.90;;;;;;5035016;28;20040;-92
2023/08/03 01:05:28;;;;;;;1.65;1.55;;;16.80;99.90;;;;;;5029855;28;20079;-91
2023/08/03 01:08:23;;;;;;;1.65;1.55;;;16.90;99.90;;;;;;5028153;28;20064;-91
2023/08/03 01:10:49;;;;;;;1.65;1.55;;;16.60;99.90;;;;;;5029338;28;20082;-91
2023/08/03 01:13:15;;;;;;;1.13;1.13;;;16.70;99.90;;;;;;5049763;28;20033;-95
2023/08/03 01:15:50;;;;;;;1.75;1.65;;;16.60;99.90;;;;;;5053219;28;20462;-95
2023/08/03 01:18:21;;;;;;;1.83;1.73;;;17.00;99.90;;;;;;5043514;28;20048;-93
2023/08/03 01:20:56;;;;;;;1.90;1.80;;;17.10;99.90;;;;;;5032755;28;20682;-94
2023/08/03 01:23:27;;;;;;;1.70;1.60;;;17.20;99.90;;;;;;5048570;28;20052;-93
2023/08/03 01:26:17;;;;;;;1.88;1.77;;;16.90;99.90;;;;;;5046869;28;20052;-94
2023/08/03 01:28:49;;;;;;;1.95;1.85;;;16.90;99.90;;;;;;5032925;28;20047;-94
2023/08/03 01:31:24;;;;;;;1.95;1.85;;;16.50;99.90;;;;;;5033144;28;20044;-93
2023/08/03 01:33:50;;;;;;;1.85;1.75;;;17.20;99.90;;;;;;5033526;28;20520;-94
2023/08/03 01:36:41;;;;;;;;;;;;;;;;;;;;;
2023/08/03 01:39:14;;;;;;;1.60;1.50;;;17.10;99.90;;;;;;5054758;28;20080;-96
2023/08/03 01:41:43;;;;;;;1.83;1.73;;;16.50;99.90;;;;;;5036049;28;20457;-96
2023/08/03 01:44:18;;;;;;;1.95;1.85;;;16.50;99.90;;;;;;5028186;28;20068;-90
2023/08/03 01:46:47;;;;;;;1.75;1.65;;;17.20;99.90;;;;;;5025962;28;20040;-93
2023/08/03 01:49:20;;;;;;;1.95;1.85;;;16.50;99.90;;;;;;5030657;28;20131;-94
2023/08/03 01:51:52;;;;;;;2.22;2.13;;;16.70;99.90;;;;;;5034626;28;20048;-96
2023/08/03 01:54:40;;;;;;;1.98;1.88;;;17.10;99.90;;;;;;5031261;28;20075;-91
2023/08/03 01:57:06;;;;;;;1.65;1.55;;;17.20;99.90;;;;;;5029349;28;20063;-91
2023/08/03 01:59:45;;;;;;;2.05;1.95;;;17.00;99.90;;;;;;5031444;28;20174;-95
2023/08/03 02:02:29;;;;;;;1.85;1.75;;;17.30;99.90;;;;;;5048323;28;20087;-96
2023/08/03 02:05:01;;;;;;;1.70;1.60;;;16.50;99.90;;;;;;5034439;28;20128;-92
2023/08/03 02:07:53;;;;;;;1.98;1.88;;;16.60;99.90;;;;;;5034732;28;20044;-96
2023/08/03 02:10:20;;;;;;;1.70;1.60;;;16.80;99.90;;;;;;4977825;28;20060;-93
2023/08/03 02:12:46;;;;;;;2.05;1.95;;;16.50;99.90;;;;;;5027990;28;20059;-94
2023/08/03 02:15:26;;;;;;;2.10;2.00;;;17.10;99.90;;;;;;5054489;28;20125;-96
2023/08/03 02:17:57;;;;;;;2.25;2.15;;;16.60;99.90;;;;;;5046056;28;20094;-94
2023/08/03 02:20:26;;;;;;;1.67;1.58;;;17.20;99.90;;;;;;5044798;28;20068;-92
2023/08/03 02:22:54;;;;;;;1.95;1.85;;;16.70;99.90;;;;;;5028608;28;20049;-95
2023/08/03 02:25:26;;;;;;;1.55;1.45;;;17.10;99.90;;;;;;5033743;28;20049;-94
2023/08/03 02:28:02;;;;;;;2.05;1.95;;;17.00;99.90;;;;;;5030507;28;20044;-95
2023/08/03 02:30:31;;;;;;;2.05;1.95;;;17.20;99.90;;;;;;5030489;28;20041;-96
2023/08/03 02:32:57;;;;;;;1.60;1.50;;;17.20;99.90;;;;;;5028723;28;20102;-93
2023/08/03 02:35:34;;;;;;;1.95;1.85;;;16.70;99.90;;;;;;5032585;28;20425;-96
2023/08/03 02:38:00;;;;;;;2.22;2.13;;;16.90;99.90;;;;;;5046025;28;20106;-91
2023/08/03 02:40:25;;;;;;;2.10;2.00;;;17.20;99.90;;;;;;5031118;28;20049;-96
2023/08/03 02:42:54;;;;;;;1.50;1.40;;;17.00;99.90;;;;;;5032379;28;20047;-96
2023/08/03 02:45:21;;;;;;;1.95;1.85;;;16.90;99.90;;;;;;5034342;28;20037;-96
2023/08/03 02:47:50;;;;;;;1.83;1.73;;;17.20;99.90;;;;;;5034949;28;20052;-95
2023/08/03 02:50:22;;;;;;;1.77;1.67;;;17.00;99.90;;;;;;5026818;28;20119;-96
2023/08/03 02:52:54;;;;;;;1.75;1.65;;;16.70;99.90;;;;;;5021431;28;20678;-91
2023/08/03 02:55:19;;;;;;;2.03;1.92;;;17.20;99.90;;;;;;5037497;28;20048;-92
2023/08/03 02:57:48;;;;;;;1.98;1.88;;;17.10;99.90;;;;;;5033074;28;20048;-96
2023/08/03 03:00:14;;;;;;;1.80;1.70;;;17.30;99.90;;;;;;5011765;28;20048;-94
2023/08/03 03:02:40;;;;;;;1.50;1.40;;;16.90;99.90;;;;;;5036931;28;20558;-93
2023/08/03 03:05:27;;;;;;;1.90;1.80;;;17.50;99.90;;;;;;5029167;28;20055;-95
2023/08/03 03:07:52;;;;;;;1.58;1.48;;;17.10;99.90;;;;;;5048384;28;20104;-92
2023/08/03 03:10:18;;;;;;;2.20;2.10;;;17.20;99.90;;;;;;5028105;28;20121;-88
2023/08/03 03:12:56;;;;;;;2.10;2.00;;;17.40;99.90;;;;;;5023615;28;20021;-95
2023/08/03 03:15:22;;;;;;;1.60;1.50;;;16.90;99.90;;;;;;5032892;28;20071;-94
2023/08/03 03:17:50;;;;;;;1.80;1.70;;;16.70;99.90;;;;;;5031818;28;20743;-95
2023/08/03 03:20:16;;;;;;;1.70;1.60;;;17.30;99.90;;;;;;5029025;28;20136;-93
2023/08/03 03:22:41;;;;;;;1.80;1.70;;;17.00;99.90;;;;;;5030128;28;20117;-94
2023/08/03 03:25:07;;;;;;;1.75;1.65;;;16.90;99.90;;;;;;5038320;28;20045;-94
2023/08/03 03:27:33;;;;;;;1.98;1.88;;;17.50;99.90;;;;;;5050491;28;20044;-93
2023/08/03 03:30:08;;;;;;;1.70;1.60;;;16.90;99.90;;;;;;5029372;28;20151;-93
2023/08/03 03:32:33;;;;;;;1.88;1.77;;;17.50;99.90;;;;;;5027726;28;20039;-94
2023/08/03 03:34:59;;;;;;;1.83;1.73;;;17.30;99.90;;;;;;5033107;28;20037;-93
2023/08/03 03:37:25;;;;;;;2.00;1.90;;;17.00;99.90;;;;;;5028385;28;20036;-91
2023/08/03 03:39:50;;;;;;;1.88;1.77;;;17.10;99.90;;;;;;5034976;28;20044;-95
2023/08/03 03:42:22;;;;;;;1.65;1.55;;;16.80;99.90;;;;;;5025756;28;20045;-94
2023/08/03 03:44:47;;;;;;;1.92;1.83;;;16.90;99.90;;;;;;5025400;28;20382;-91
2023/08/03 03:47:13;;;;;;;1.80;1.70;;;17.40;99.90;;;;;;5031590;28;20245;-91
2023/08/03 03:49:39;;;;;;;2.08;1.98;;;17.00;99.90;;;;;;5028546;28;20131;-91
2023/08/03 03:52:04;;;;;;;1.80;1.70;;;17.30;99.90;;;;;;5025466;28;20131;-88
2023/08/03 03:54:30;;;;;;;2.05;1.95;;;17.00;99.90;;;;;;5047421;28;20056;-94
2023/08/03 03:56:57;;;;;;;2.05;1.95;;;17.00;99.90;;;;;;5032028;28;20094;-92
2023/08/03 03:59:23;;;;;;;2.10;2.00;;;16.70;99.90;;;;;;5026111;28;20056;-88
2023/08/03 04:01:49;;;;;;;2.13;2.03;;;17.00;99.90;;;;;;5043859;28;20055;-89
2023/08/03 04:04:15;;;;;;;2.25;2.15;;;17.40;99.90;;;;;;5047362;28;20052;-91
2023/08/03 04:06:40;;;;;;;2.15;2.05;;;17.20;99.90;;;;;;5025131;28;20060;-94
2023/08/03 04:09:06;;;;;;;2.00;1.90;;;16.80;99.90;;;;;;5027199;28;20048;-89
2023/08/03 04:11:32;;;;;;;1.67;1.58;;;17.00;99.90;;;;;;5043545;28;20040;-93
2023/08/03 04:13:57;;;;;;;1.83;1.73;;;17.10;99.90;;;;;;5023492;28;20056;-93
2023/08/03 04:16:23;;;;;;;1.90;1.80;;;16.80;99.90;;;;;;5023400;28;20651;-91
2023/08/03 04:18:49;;;;;;;1.80;1.70;;;17.00;99.90;;;;;;5025936;28;20133;-90
2023/08/03 04:21:41;;;;;;;1.92;1.83;;;16.90;99.90;;;;;;5024610;28;20056;-93
2023/08/03 04:24:06;;;;;;;1.98;1.88;;;17.30;99.90;;;;;;5021265;28;20667;-90
2023/08/03 04:26:32;;;;;;;2.10;2.00;;;16.80;99.90;;;;;;5024273;28;20101;-93
2023/08/03 04:28:58;;;;;;;1.50;1.40;;;17.40;99.90;;;;;;5041494;28;20052;-89
2023/08/03 04:31:33;;;;;;;2.13;2.03;;;17.30;99.90;;;;;;5045752;28;20084;-94
2023/08/03 04:33:58;;;;;;;1.67;1.58;;;17.00;99.90;;;;;;5026907;28;20044;-94
2023/08/03 04:36:24;;;;;;;1.52;1.42;;;17.60;99.90;;;;;;5047364;28;20041;-93
2023/08/03 04:38:52;;;;;;;1.52;1.42;;;17.50;99.90;;;;;;5025832;28;20069;-94
2023/08/03 04:41:20;;;;;;;1.80;1.70;;;17.60;99.90;;;;;;5026257;28;20052;-91
2023/08/03 04:43:46;;;;;;;2.00;1.90;;;17.60;99.90;;;;;;5022219;28;20200;-91
2023/08/03 04:46:12;;;;;;;2.05;1.95;;;17.20;99.90;;;;;;5030836;28;20044;-93
2023/08/03 04:48:38;;;;;;;1.98;1.88;;;17.30;99.90;;;;;;5026577;28;20044;-96
2023/08/03 04:51:04;;;;;;;1.63;1.52;;;17.70;99.90;;;;;;5029448;28;20139;-95
2023/08/03 04:53:30;;;;;;;2.20;2.10;;;17.00;99.90;;;;;;5026610;28;20123;-93
2023/08/03 04:56:05;;;;;;;2.20;2.10;;;17.70;99.90;;;;;;5043516;28;20052;-94
2023/08/03 04:58:31;;;;;;;1.95;1.85;;;17.70;99.90;;;;;;5031114;28;20045;-96
2023/08/03 05:01:10;;;;;;;2.10;2.00;;;17.00;99.90;;;;;;5032652;28;20041;-94
2023/08/03 05:03:39;;;;;;;2.25;2.15;;;17.40;99.90;;;;;;5032184;28;20044;-95
2023/08/03 05:09:59;;;;;;;2.08;1.98;;;17.90;99.90;;;;;;5008113;28;20039;-96
2023/08/03 05:12:25;;;;;;;1.95;1.85;;;17.80;99.90;;;;;;5011804;28;20037;-95
2023/08/03 05:14:57;;;;;;;1.98;1.88;;;17.70;99.90;;;;;;5045585;28;20052;-95
2023/08/03 05:17:26;;;;;;;1.90;1.80;;;17.30;99.90;;;;;;5013587;28;20048;-96
2023/08/03 05:20:28;;;;;;;2.38;2.28;;;17.90;99.90;;;;;;5028910;28;20051;-96
2023/08/03 05:22:56;;;;;;;2.00;1.90;;;17.70;99.90;;;;;;4960009;28;20723;-94
2023/08/03 05:25:25;;;;;;;2.28;2.17;;;17.80;99.90;;;;;;5019807;28;20064;-96
2023/08/03 05:27:51;;;;;;;1.92;1.83;;;17.30;99.90;;;;;;5025557;28;20049;-91
2023/08/03 05:30:16;;;;;;;1.88;1.77;;;17.40;99.90;;;;;;5025332;28;20492;-92
2023/08/03 05:32:42;;;;;;;2.00;1.90;;;17.40;99.90;;;;;;5045679;28;20047;-91
2023/08/03 05:35:08;;;;;;;1.98;1.88;;;17.90;99.90;;;;;;5030470;28;20044;-89
2023/08/03 05:37:34;;;;;;;1.70;1.60;;;17.40;99.90;;;;;;5029064;28;20055;-91
2023/08/03 05:40:12;;;;;;;1.83;1.73;;;17.90;99.90;;;;;;5025631;28;20049;-92
2023/08/03 05:42:43;;;;;;;1.83;1.73;;;17.50;99.90;;;;;;5032037;28;20047;-91
2023/08/03 05:45:12;;;;;;;1.80;1.70;;;17.60;99.90;;;;;;5029949;28;20052;-91
2023/08/03 05:47:43;;;;;;;1.60;1.50;;;18.20;99.90;;;;;;5030153;28;21447;-96
2023/08/03 05:50:19;;;;;;;1.60;1.55;;;18.70;99.90;;;;;;5028918;28;20047;-95
2023/08/03 05:52:44;;;;;;;1.75;1.65;;;18.10;99.90;;;;;;5047294;28;20060;-90
2023/08/03 05:55:23;;;;;;;1.65;1.55;;;18.20;99.90;;;;;;5047620;28;20041;-95
2023/08/03 06:01:41;;;;;;;2.13;2.03;;;17.70;99.90;;;;;;5045514;28;20052;-94
2023/08/03 06:04:11;;;;;;;1.85;1.75;;;17.50;99.90;;;;;;5049342;28;20079;-92
2023/08/03 06:07:07;;;;;;;1.65;1.55;;;17.60;99.90;;;;;;5030082;28;20052;-96
2023/08/03 06:09:46;;;;;;;2.13;2.03;;;17.60;99.90;;;;;;5027020;28;20649;-96
2023/08/03 06:12:15;;;;;;;1.98;1.88;;;17.60;99.90;;;;;;5027253;28;20079;-96
2023/08/03 06:14:57;;;;;;;2.20;2.10;;;17.70;99.90;;;;;;4977246;28;20434;-94
2023/08/03 06:17:29;;;;;;;1.70;1.60;;;18.00;99.90;;;;;;5014771;28;20107;-96
2023/08/03 06:19:55;;;;;;;2.15;2.05;;;18.30;99.90;;;;;;5049898;28;20044;-94
2023/08/03 06:22:23;;;;;;;1.65;1.55;;;17.90;99.90;;;;;;5035525;28;20045;-95
2023/08/03 06:25:15;;;;;;;1.63;1.52;;;18.10;99.90;;;;;;5044682;28;20056;-95
2023/08/03 06:28:03;;;;;;;;;;;;;;;;;;;;;
2023/08/03 06:34:48;;;;;;;;;;;;;;;;;;;;;
2023/08/03 06:38:15;;;;;;;1.77;1.67;;;18.80;99.90;;;;;;5032009;28;20044;-96
2023/08/03 06:45:15;;;;;;;1.70;1.60;;;19.10;99.90;;;;;;4993334;28;20170;-91
2023/08/03 07:04:31;;;;;;;1.30;1.30;;;19.00;99.90;;;;;;4996175;28;20384;-94
2023/08/03 07:06:56;;;;;;;1.65;1.55;;;19.00;99.90;;;;;;4974348;28;20133;-91
2023/08/03 07:10:19;;;;;;;2.08;1.98;;;19.10;99.90;;;;;;4981412;28;20854;-96
2023/08/03 07:12:45;;;;;;;1.63;1.52;;;18.90;99.90;;;;;;4980938;28;20046;-93
2023/08/03 07:22:35;;;;;;;1.58;1.48;;;19.30;99.90;;;;;;5022098;28;20048;-95
2023/08/03 07:25:01;;;;;;;1.55;1.48;;;19.40;99.90;;;;;;4978468;28;20042;-91
2023/08/03 07:27:45;;;;;;;1.50;1.42;;;19.30;99.90;;;;;;4993236;28;20107;-96
2023/08/03 07:30:29;;;;;;;;;;;19.40;99.90;;;;;;4996133;28;20133;-95
2023/08/03 07:33:13;;;;;;;1.10;1.10;;;19.40;99.90;;;;;;4980235;28;19926;-96
2023/08/03 07:36:26;;;;;;;;;;;;;;;;;;;;;
2023/08/03 07:39:16;;;;;;;1.15;1.15;;;20.10;99.90;;;;;;4973050;28;20074;-96
2023/08/03 07:42:19;;;;;;;1.15;1.15;;;20.80;99.90;;;;;;4974730;28;20043;-96
2023/08/03 07:49:09;;;;;;;0.98;0.98;;;20.50;99.90;;;;;;5032884;22;20102;-96
2023/08/03 07:51:38;;;;;;;0.98;0.98;;;20.40;99.90;;;;;;4993934;28;20042;-96
2023/08/03 08:00:36;;;;;;;1.15;1.15;;;19.90;99.90;;;;;;5359573;22;19978;-96
2023/08/03 08:03:30;;;;;;;0.90;0.90;;;19.70;99.90;;;;;;5022980;28;20101;-96
2023/08/03 08:13:32;;;;;;;1.05;1.05;;;19.40;99.90;;;;;;4985880;28;20061;-95
2023/08/03 08:20:04;;;;;;;0.95;0.95;;;20.80;99.90;;;;;;5000518;28;20037;-94
2023/08/03 08:30:57;;;;;;;0.82;0.82;;;21.20;99.90;;;;;;4966854;28;20069;-94
2023/08/03 08:34:04;;;;;;;1.00;1.00;;;21.60;99.90;;;;;;4944140;28;20043;-95
2023/08/03 08:36:33;;;;;;;0.98;0.98;;;21.60;99.90;;;;;;4922914;28;20099;-95
2023/08/03 08:39:01;;;;;;;1.02;1.02;;;22.00;99.90;;;;;;4949591;28;20808;-96
2023/08/03 09:08:51;;;;;;;1.08;1.08;;;21.90;99.90;;;;;;4982485;28;20125;-93
2023/08/03 09:12:11;;;;;;;1.15;1.15;;;22.10;99.90;;;;;;5000713;28;20047;-94
2023/08/03 09:14:57;;;;;;;0.93;0.93;;;22.40;99.90;;;;;;4937464;29;20095;-96
2023/08/03 09:17:44;;;;;;;1.10;1.10;;;22.50;99.90;;;;;;4992211;28;20065;-96
2023/08/03 09:20:26;;;;;;;1.05;1.05;;;22.30;99.90;;;;;;5001563;28;20552;-93
2023/08/03 09:27:04;;;;;;;1.08;1.08;;;22.90;99.90;;;;;;5012091;28;20052;-95
2023/08/03 09:44:29;;;;;;;1.23;1.23;;;22.00;99.90;;;;;;5068310;28;20118;-96
2023/08/03 09:46:56;;;;;;;;;;;22.90;99.90;;;;;;5042473;28;20051;-94
2023/08/03 09:49:45;;;;;;;1.05;1.05;;;23.30;99.90;;;;;;5031694;28;20023;-96
2023/08/03 09:56:05;;;;;;;1.35;1.35;;;23.90;99.90;;;;;;5053523;28;20052;-95
2023/08/03 10:02:43;;;;;;;0.75;0.75;;;23.80;99.90;;;;;;5313847;22;20056;-91
2023/08/03 10:05:17;;;;;;;1.25;1.25;;;22.90;99.90;;;;;;5031304;28;20110;-93
2023/08/03 10:07:59;;;;;;;1.77;1.67;;;23.60;99.90;;;;;;5026578;28;20050;-93
2023/08/03 10:10:28;;;;;;;1.30;1.30;;;23.80;99.90;;;;;;5024809;28;20131;-90
2023/08/03 10:13:16;;;;;;;0.30;0.30;;;23.90;99.90;;;;;;5045611;28;20059;-95
2023/08/03 10:15:42;;;;;;;1.40;1.40;;;24.30;99.90;;;;;;5026831;28;20127;-90
2023/08/03 10:18:08;;;;;;;1.48;1.48;;;24.50;99.90;;;;;;5043463;28;20140;-90
2023/08/03 10:23:49;;;;;;;1.50;1.40;;;24.20;99.90;;;;;;5047040;28;20048;-92
2023/08/03 10:26:22;;;;;;;0.30;0.30;;;23.60;99.90;;;;;;5027651;28;20040;-91
2023/08/03 10:28:48;;;;;;;0.73;0.73;;;24.40;99.90;;;;;;5062858;28;20246;-91
2023/08/03 10:31:19;;;;;;;0.30;0.30;;;24.30;99.90;;;;;;5026567;28;20151;-93
2023/08/03 10:33:50;;;;;;;1.10;1.10;;;23.80;99.90;;;;;;5027715;28;20040;-94
2023/08/03 10:36:40;;;;;;;0.30;0.30;;;24.00;99.90;;;;;;5029927;28;20071;-93
2023/08/03 10:39:09;;;;;;;1.85;1.75;;;24.00;99.90;;;;;;5026096;28;20056;-90
2023/08/03 10:42:23;;;;;;;0.30;0.30;;;24.40;99.90;;;;;;5022566;28;20082;-89
2023/08/03 10:44:52;;;;;;;1.83;1.73;;;24.50;99.90;;;;;;5043262;28;20054;-94
2023/08/03 10:47:31;;;;;;;0.30;0.30;;;24.60;99.90;;;;;;5027265;28;20132;-92
2023/08/03 10:49:58;;;;;;;1.13;1.13;;;24.60;99.90;;;;;;5020901;28;20062;-91
2023/08/03 10:52:30;;;;;;;0.30;0.30;;;24.10;99.90;;;;;;5005936;28;20045;-90
2023/08/03 10:55:17;;;;;;;0.30;0.30;;;24.50;99.90;;;;;;5001368;28;20052;-89
2023/08/03 10:57:55;;;;;;;0.30;0.30;;;24.70;99.90;;;;;;5004210;28;20567;-95
2023/08/03 11:00:21;;;;;;;1.38;1.38;;;24.70;99.90;;;;;;5009570;28;20992;-91
2023/08/03 11:02:50;;;;;;;0.30;0.30;;;24.60;99.90;;;;;;5011930;28;20052;-94
2023/08/03 11:05:16;;;;;;;0.30;0.30;;;24.40;99.90;;;;;;5014977;28;20056;-88
2023/08/03 11:07:44;;;;;;;0.30;0.30;;;24.20;99.90;;;;;;5005040;28;20048;-90
2023/08/03 11:10:12;;;;;;;1.10;1.08;;;24.60;99.90;;;;;;5002707;28;20049;-91
2023/08/03 11:12:40;;;;;;;0.30;0.30;;;24.90;99.90;;;;;;5005466;28;20045;-91
2023/08/03 11:15:07;;;;;;;0.30;0.30;;;24.60;99.90;;;;;;5011020;28;20049;-96
2023/08/03 11:17:35;;;;;;;0.30;0.30;;;24.80;99.90;;;;;;5004723;28;20073;-90
2023/08/03 11:20:08;;;;;;;0.30;0.30;;;24.60;99.90;;;;;;4999436;28;20111;-93
2023/08/03 11:22:34;;;;;;;1.90;1.80;;;25.10;99.90;;;;;;5003752;28;20057;-89
2023/08/03 11:25:03;;;;;;;0.30;0.30;;;25.00;99.90;;;;;;5022010;28;20083;-92
2023/08/03 11:27:30;;;;;;;0.30;0.30;;;25.00;99.90;;;;;;5006892;28;20080;-88
2023/08/03 11:29:56;;;;;;;0.30;0.30;;;24.90;99.90;;;;;;5021387;28;20129;-94
2023/08/03 11:32:27;;;;;;;0.30;0.30;;;24.60;99.90;;;;;;5005740;28;20049;-93
2023/08/03 11:35:00;;;;;;;0.30;0.30;;;24.60;99.90;;;;;;5024209;28;20084;-87
2023/08/03 11:37:34;;;;;;;0.75;0.75;;;24.40;99.90;;;;;;5005641;28;20041;-89
2023/08/03 11:40:00;;;;;;;;;;;24.30;99.90;;;;;;5013855;28;20060;-89
2023/08/03 11:42:27;;;;;;;1.25;1.25;;;24.60;99.90;;;;;;5014593;28;19932;-89
2023/08/03 11:44:53;;;;;;;0.30;0.30;;;24.50;99.90;;;;;;5006516;28;20041;-88
2023/08/03 11:47:19;;;;;;;0.30;0.30;;;24.60;99.90;;;;;;4993822;28;20049;-88
2023/08/03 11:49:48;;;;;;;0.22;0.22;;;24.60;99.90;;;;;;5023801;28;20452;-88
2023/08/03 11:52:21;;;;;;;0.30;0.30;;;24.30;99.90;;;;;;5018992;28;20130;-88
2023/08/03 11:54:46;;;;;;;0.30;0.30;;;23.80;99.90;;;;;;5019462;28;20064;-89
2023/08/03 11:59:56;;;;;;;1.10;1.10;;;23.60;99.90;;;;;;5021569;28;20433;-90
2023/08/03 12:02:39;;;;;;;1.15;1.15;;;23.50;99.90;;;;;;5014710;28;20041;-90
2023/08/03 12:05:06;;;;;;;0.43;0.43;;;23.80;99.90;;;;;;5023022;28;20083;-88
2023/08/03 12:07:32;;;;;;;0.30;0.30;;;23.70;99.90;;;;;;5006818;28;20060;-87
2023/08/03 12:09:58;;;;;;;0.77;0.77;;;23.80;99.90;;;;;;5023376;28;20061;-85
2023/08/03 12:12:27;;;;;;;0.93;0.93;;;23.50;99.90;;;;;;5027093;28;20052;-92
2023/08/03 12:14:56;;;;;;;0.90;0.90;;;23.30;99.90;;;;;;5022902;28;20040;-92
2023/08/03 12:17:21;;;;;;;0.20;0.20;;;22.80;99.90;;;;;;5025348;28;20096;-87
2023/08/03 12:19:47;;;;;;;0.88;0.88;;;22.30;99.90;;;;;;5007940;28;20072;-91
2023/08/03 12:22:15;;;;;;;0.75;0.75;;;22.10;99.90;;;;;;5009197;28;20045;-88
2023/08/03 12:24:40;;;;;;;0.73;0.73;;;22.40;99.90;;;;;;5027496;28;20579;-90
2023/08/03 12:27:06;;;;;;;0.50;0.50;;;22.30;99.90;;;;;;5017622;28;20056;-89
2023/08/03 12:29:32;;;;;;;1.05;1.05;;;22.50;99.90;;;;;;5022335;28;20044;-90
2023/08/03 12:31:58;;;;;;;0.98;0.98;;;22.80;99.90;;;;;;5022140;28;20041;-89
2023/08/03 12:34:26;;;;;;;0.95;0.95;;;23.40;99.90;;;;;;5022496;28;20450;-93
2023/08/03 12:36:52;;;;;;;1.13;1.13;;;23.40;99.90;;;;;;5005651;28;20047;-87
2023/08/03 12:39:18;;;;;;;1.02;1.02;;;23.60;99.90;;;;;;5023264;28;20054;-89
2023/08/03 12:41:45;;;;;;;0.88;0.88;;;23.90;99.90;;;;;;5009198;28;20040;-89
2023/08/03 12:44:16;;;;;;;0.65;0.65;;;23.60;99.90;;;;;;5023042;28;20478;-94
2023/08/03 12:46:41;;;;;;;0.88;0.88;;;23.30;99.90;;;;;;5004379;28;20072;-96
2023/08/03 12:49:07;;;;;;;0.95;0.95;;;22.80;99.90;;;;;;5025540;28;20088;-89
2023/08/03 12:51:35;;;;;;;0.98;0.98;;;23.20;99.90;;;;;;5027317;28;20045;-87
2023/08/03 12:54:02;;;;;;;0.52;0.52;;;23.80;99.90;;;;;;5022270;28;20687;-90
2023/08/03 12:56:28;;;;;;;0.98;0.98;;;23.80;99.90;;;;;;5019652;28;20037;-91
2023/08/03 12:58:54;;;;;;;0.68;0.68;;;24.10;99.90;;;;;;5013028;28;20509;-89
2023/08/03 13:01:21;;;;;;;0.20;0.20;;;24.70;99.90;;;;;;5010835;28;20045;-90
2023/08/03 13:03:47;;;;;;;1.13;1.13;;;24.80;99.90;;;;;;5022738;28;20172;-88
2023/08/03 13:06:26;;;;;;;1.00;1.00;;;25.20;99.90;;;;;;5011608;28;20069;-95
2023/08/03 13:08:54;;;;;;;0.50;0.50;;;24.70;99.90;;;;;;5024335;28;20087;-87
2023/08/03 13:11:20;;;;;;;0.30;0.30;;;24.80;99.90;;;;;;5025654;28;20049;-88
2023/08/03 13:13:46;;;;;;;0.30;0.30;;;24.50;99.90;;;;;;5025991;28;20049;-90
2023/08/03 13:16:12;;;;;;;0.30;0.30;;;24.80;99.90;;;;;;5020198;28;20032;-84
2023/08/03 13:18:40;;;;;;;0.38;0.38;;;24.70;99.90;;;;;;5020167;28;20060;-95
2023/08/03 13:21:06;;;;;;;0.60;0.60;;;25.20;99.90;;;;;;5022183;28;20409;-89
2023/08/03 13:23:32;;;;;;;0.30;0.30;;;25.30;99.90;;;;;;5006960;28;20052;-91
2023/08/03 13:25:58;;;;;;;0.50;0.50;;;25.50;99.90;;;;;;5028215;28;20524;-93
2023/08/03 13:28:23;;;;;;;0.30;0.30;;;25.90;99.90;;;;;;5006380;28;20376;-88
2023/08/03 13:30:51;;;;;;;0.30;0.30;;;25.50;99.90;;;;;;5008566;28;20046;-90
2023/08/03 13:33:16;;;;;;;0.30;0.30;;;25.10;99.90;;;;;;5007398;28;20054;-91
2023/08/03 13:35:42;;;;;;;0.30;0.30;;;25.30;99.90;;;;;;5025907;28;20461;-88
2023/08/03 13:38:07;;;;;;;0.30;0.30;;;25.50;99.90;;;;;;5008364;28;20056;-86
2023/08/03 13:40:33;;;;;;;0.30;0.30;;;25.30;99.90;;;;;;5026673;28;20055;-90
2023/08/03 13:42:59;;;;;;;0.30;0.30;;;24.90;99.90;;;;;;5024728;28;20506;-89
2023/08/03 13:45:25;;;;;;;0.30;0.30;;;23.90;99.90;;;;;;5007999;28;20080;-90
2023/08/03 13:47:50;;;;;;;0.30;0.30;;;23.70;99.90;;;;;;5005725;28;20045;-90
2023/08/03 13:50:16;;;;;;;0.30;0.30;;;23.30;99.90;;;;;;5006372;28;20052;-90
2023/08/03 13:52:42;;;;;;;0.30;0.30;;;23.30;99.90;;;;;;5001892;28;20044;-87
2023/08/03 13:55:08;;;;;;;0.30;0.30;;;23.10;99.90;;;;;;5006912;28;20057;-90
2023/08/03 13:57:33;;;;;;;0.90;0.90;;;23.10;99.90;;;;;;5002739;28;20049;-90
2023/08/03 13:59:59;;;;;;;0.80;0.80;;;23.40;99.90;;;;;;5006363;28;20158;-87
2023/08/03 14:02:24;;;;;;;0.60;0.60;;;23.20;99.90;;;;;;5021345;28;20064;-88
2023/08/03 14:04:50;;;;;;;0.50;0.50;;;22.80;99.90;;;;;;5024735;28;20051;-89
2023/08/03 14:07:17;;;;;;;0.60;0.60;;;22.60;99.90;;;;;;5023103;28;20040;-87
2023/08/03 14:09:46;;;;;;;0.70;0.70;;;22.60;99.90;;;;;;5004578;28;20055;-90
2023/08/03 14:12:15;;;;;;;0.60;0.60;;;22.90;99.90;;;;;;5005175;28;20072;-87
2023/08/03 14:14:40;;;;;;;0.60;0.60;;;23.20;99.90;;;;;;5019101;28;20704;-89
2023/08/03 14:17:06;;;;;;;0.60;0.60;;;23.50;99.90;;;;;;5007147;28;20087;-88
2023/08/03 14:19:32;;;;;;;0.60;0.60;;;24.00;99.90;;;;;;4999918;28;20048;-93
2023/08/03 14:21:57;;;;;;;0.63;0.63;;;23.60;99.90;;;;;;5021277;28;20133;-90
2023/08/03 14:24:23;;;;;;;0.50;0.50;;;23.80;99.90;;;;;;5006699;28;20139;-89
2023/08/03 14:26:49;;;;;;;0.80;0.80;;;24.00;99.90;;;;;;5005826;28;20045;-89
2023/08/03 14:29:14;;;;;;;0.70;0.70;;;23.70;99.90;;;;;;5019817;28;20051;-90
2023/08/03 14:31:40;;;;;;;0.40;0.40;;;24.00;99.90;;;;;;5024787;28;20459;-90
2023/08/03 14:34:06;;;;;;;0.98;0.98;;;24.10;99.90;;;;;;5021089;28;20057;-88
2023/08/03 14:36:31;;;;;;;0.52;0.52;;;24.40;99.90;;;;;;5017178;28;20063;-91
2023/08/03 14:38:57;;;;;;;0.30;0.30;;;24.70;99.90;;;;;;5001765;28;20128;-89
2023/08/03 14:41:25;;;;;;;1.10;1.10;;;24.40;99.90;;;;;;5021353;28;20041;-92
2023/08/03 14:43:51;;;;;;;0.30;0.30;;;23.60;99.90;;;;;;5019098;28;20048;-87
2023/08/03 14:46:18;;;;;;;0.50;0.50;;;23.40;99.90;;;;;;5023988;28;20060;-86
2023/08/03 14:48:44;;;;;;;0.50;0.50;;;23.40;99.90;;;;;;5006660;28;20042;-89
2023/08/03 14:51:09;;;;;;;0.60;0.60;;;23.40;99.90;;;;;;5020840;28;20059;-87
2023/08/03 14:53:35;;;;;;;0.40;0.40;;;22.80;99.90;;;;;;5020312;28;20041;-91
2023/08/03 14:56:04;;;;;;;0.47;0.47;;;22.60;99.90;;;;;;5019782;28;20099;-87
2023/08/03 14:58:30;;;;;;;0.50;0.50;;;22.80;99.90;;;;;;5001564;28;20092;-90
2023/08/03 15:00:56;;;;;;;0.50;0.50;;;22.40;99.90;;;;;;5002928;28;20093;-87
2023/08/03 15:03:23;;;;;;;0.40;0.40;;;22.50;99.90;;;;;;5019245;28;20139;-90
2023/08/03 15:05:49;;;;;;;0.40;0.40;;;22.20;99.90;;;;;;5016690;28;20045;-88
2023/08/03 15:08:16;;;;;;;0.40;0.40;;;22.20;99.90;;;;;;5001793;28;20422;-89
2023/08/03 15:10:42;;;;;;;0.40;0.40;;;21.90;99.90;;;;;;5006621;28;20102;-86
2023/08/03 15:13:07;;;;;;;0.50;0.50;;;22.00;99.90;;;;;;4978653;28;20066;-88
2023/08/03 15:15:33;;;;;;;0.50;0.50;;;22.40;99.90;;;;;;4967079;28;20057;-89
2023/08/03 15:18:02;;;;;;;0.47;0.47;;;22.50;99.90;;;;;;4979023;28;20062;-92
2023/08/03 15:20:30;;;;;;;0.40;0.40;;;22.60;99.90;;;;;;4961436;28;20076;-92
2023/08/03 15:22:56;;;;;;;0.40;0.40;;;22.40;99.90;;;;;;4977122;28;20046;-92
2023/08/03 15:25:22;;;;;;;0.40;0.40;;;22.00;99.90;;;;;;4979509;28;20096;-92
2023/08/03 15:27:48;;;;;;;0.47;0.47;;;21.70;99.90;;;;;;4963151;28;20050;-88